Pride Of Rotterdam — PBAJ — position and weather

sailwx.info

Track history (hours):
 
Tides and Currents Weather Stations Pressure Air Temp Water Temp Dewpoint Dewpoint Depression Visibility Wind Speed Wind Dir Waves Ship Positions

Pride Of Rotterdam

Operator: P&O Ferries

Last reported at 2017-Mar-23 17:31 UTC. Time now 2017-Mar-23 18:22 UTC.
Position N 53°44' W 000°17'.

Length 214 m; draft 6.1 m.

Type: Passenger vessel. MMSI: 244980000.

Date/timePositionNaut miles runAvg speedWind from/ knotsBaromVisibWave heightAir tempDewpointWater temp
2017-Mar-23 17:31N 53°44' W 000°17'0 0.0
2017-Mar-23 16:30N 53°44' W 000°17'0 0.0
2017-Mar-23 15:33N 53°44' W 000°17'0 0.0
2017-Mar-23 14:33N 53°44' W 000°17'0 0.0
2017-Mar-23 13:32N 53°44' W 000°17'0 0.0
2017-Mar-23 12:32N 53°44' W 000°17'0 0.0
2017-Mar-23 11:31N 53°44' W 000°17'0 0.0
2017-Mar-23 10:31N 53°44' W 000°17'0 0.0
2017-Mar-23 09:34N 53°44' W 000°17'0 0.0
2017-Mar-23 08:33N 53°44' W 000°17'0 0.0
2017-Mar-23 07:33N 53°44' W 000°17'2 1.9
2017-Mar-23 06:33N 53°43' W 000°15'1111.3
2017-Mar-23 05:33N 53°35' W 000°01'1615.5
2017-Mar-23 04:32N 53°32' E 000°26'1816.5
2017-Mar-23 03:26N 53°23' E 000°52'1517.2
2017-Mar-23 02:33N 53°13' E 001°11'1818.2
2017-Mar-23 01:33N 53°03' E 001°36'1919.1
2017-Mar-23 00:33N 52°52' E 002°02'8120.3
2017-Mar-22 20:34N 52°04' E 003°49'1413.4
2017-Mar-22 19:33N 51°57' E 004°08'0 0.0
2017-Mar-22 18:32N 51°57' E 004°08'0 0.0
2017-Mar-22 17:31N 51°57' E 004°08'0 0.0
2017-Mar-22 16:31N 51°57' E 004°08'0 0.0
2017-Mar-22 15:28N 51°57' E 004°08'0 0.0
2017-Mar-22 14:33N 51°57' E 004°08'0 0.0
2017-Mar-22 13:33N 51°57' E 004°08'0 0.0
2017-Mar-22 12:32N 51°57' E 004°08'0 0.0
2017-Mar-22 11:32N 51°57' E 004°08'0 0.0
2017-Mar-22 10:31N 51°57' E 004°08'0 0.0
2017-Mar-22 09:31N 51°57' E 004°08'0 0.0
2017-Mar-22 08:30N 51°57' E 004°08'0 0.0
2017-Mar-22 07:33N 51°57' E 004°08'10 9.9
2017-Mar-22 06:34N 52°02' E 003°54'7618.5
2017-Mar-22 02:27N 52°41' E 002°07'1719.3
2017-Mar-22 01:34N 52°51' E 001°44'1919.3
2017-Mar-22 00:34N 52°59' E 001°15'5418.0
2017-Mar-21 21:33N 53°34' E 000°06'1413.6
2017-Mar-21 20:33N 53°41' W 000°14'4 3.5
2017-Mar-21 19:31N 53°44' W 000°17'0 0.0
2017-Mar-21 18:34N 53°44' W 000°17'0 0.0
2017-Mar-21 17:33N 53°44' W 000°17'0 0.0
2017-Mar-21 16:33N 53°44' W 000°17'0 0.0
2017-Mar-21 15:32N 53°44' W 000°17'0 0.0
2017-Mar-21 14:32N 53°44' W 000°17'0 0.0
2017-Mar-21 13:31N 53°44' W 000°17'0 0.0
2017-Mar-21 12:31N 53°44' W 000°17'0 0.0
2017-Mar-21 11:33N 53°44' W 000°17'0 0.0
2017-Mar-21 10:33N 53°44' W 000°17'0 0.0
2017-Mar-21 09:33N 53°44' W 000°17'0 0.0
2017-Mar-21 08:32N 53°44' W 000°17'0 0.0
2017-Mar-21 07:32N 53°44' W 000°17'2 2.5
2017-Mar-21 06:33N 53°42' W 000°14'1312.9
2017-Mar-21 05:33N 53°35' E 000°03'1615.9
2017-Mar-21 04:33N 53°31' E 000°29'2018.1
2017-Mar-21 03:26N 53°21' E 000°59'1618.5
2017-Mar-21 02:34N 53°12' E 001°21'1918.5
2017-Mar-21 01:33N 53°00' E 001°45'1918.7
2017-Mar-21 00:33N 52°48' E 002°09'6319.9
2017-Mar-20 21:24N 52°09' E 003°29'1619.6
2017-Mar-20 20:33N 52°02' E 003°54'1010.3
2017-Mar-20 19:33N 51°57' E 004°08'0 0.0
2017-Mar-20 18:33N 51°57' E 004°08'0 0.0
2017-Mar-20 17:32N 51°57' E 004°08'0 0.0
2017-Mar-20 16:32N 51°57' E 004°08'0 0.0
2017-Mar-20 15:32N 51°57' E 004°08'0 0.0
2017-Mar-20 14:32N 51°57' E 004°08'0 0.0
2017-Mar-20 13:31N 51°57' E 004°08'0 0.0
2017-Mar-20 12:33N 51°57' E 004°08'0 0.0
2017-Mar-20 11:33N 51°57' E 004°08'0 0.0
2017-Mar-20 10:29N 51°57' E 004°08'0 0.0
2017-Mar-20 09:32N 51°57' E 004°08'0 0.0
2017-Mar-20 08:32N 51°57' E 004°08'0 0.0
2017-Mar-20 07:33N 51°57' E 004°08'1010.0
2017-Mar-20 06:34N 52°01' E 003°53'13917.4
2017-Mar-19 22:33N 53°17' E 000°41'1717.0
2017-Mar-19 21:33N 53°29' E 000°21'1717.0
2017-Mar-19 20:33N 53°37' W 000°05'1110.3
2017-Mar-19 19:31N 53°44' W 000°17'0 0.0
2017-Mar-19 18:31N 53°44' W 000°17'0 0.0
2017-Mar-19 17:33N 53°44' W 000°17'0 0.0
2017-Mar-19 16:33N 53°44' W 000°17'0 0.0
2017-Mar-19 15:33N 53°44' W 000°17'0 0.0
2017-Mar-19 14:32N 53°44' W 000°17'0 0.0
2017-Mar-19 13:32N 53°44' W 000°17'0 0.0
2017-Mar-19 12:31N 53°44' W 000°17'0 0.0
2017-Mar-19 11:31N 53°44' W 000°17'0 0.0
2017-Mar-19 10:33N 53°44' W 000°17'0 0.0
2017-Mar-19 09:33N 53°44' W 000°17'0 0.0
2017-Mar-19 08:33N 53°44' W 000°17'1 0.9
2017-Mar-19 07:31N 53°44' W 000°16'1313.6
2017-Mar-19 06:33N 53°35' E 000°01'1515.0
2017-Mar-19 05:33N 53°32' E 000°26'1515.4
2017-Mar-19 04:33N 53°24' E 000°47'1616.2
2017-Mar-19 03:33N 53°16' E 001°11'1615.8
2017-Mar-19 02:33N 53°07' E 001°32'1515.2
2017-Mar-19 01:33N 52°57' E 001°52'8315.3
2017-Mar-18 20:08N 52°07' E 003°40'813.6
2017-Mar-18 19:33N 52°05' E 003°52'1211.9
2017-Mar-18 18:31N 51°57' E 004°08'0 0.0
2017-Mar-18 17:33N 51°57' E 004°08'0 0.0
2017-Mar-18 16:33N 51°57' E 004°08'0 0.0
2017-Mar-18 15:30N 51°57' E 004°08'0 0.0
2017-Mar-18 14:33N 51°57' E 004°08'0 0.0
2017-Mar-18 13:32N 51°57' E 004°08'0 0.0
2017-Mar-18 12:32N 51°57' E 004°08'0 0.0
2017-Mar-18 11:31N 51°57' E 004°08'0 0.0
2017-Mar-18 10:33N 51°57' E 004°08'0 0.0
2017-Mar-18 09:32N 51°57' E 004°08'0 0.0
2017-Mar-18 08:32N 51°57' E 004°08'2 1.8
2017-Mar-18 07:33N 51°58' E 004°07'1616.3
2017-Mar-18 06:33N 52°04' E 003°42'12417.6
2017-Mar-17 23:31N 53°11' E 000°51'1818.2
2017-Mar-17 22:33N 53°23' E 000°30'1817.8
2017-Mar-17 21:33N 53°34' E 000°06'1616.0
2017-Mar-17 20:33N 53°43' W 000°15'1 1.3
2017-Mar-17 19:32N 53°44' W 000°17'0 0.0
2017-Mar-17 18:31N 53°44' W 000°17'0 0.0
2017-Mar-17 17:31N 53°44' W 000°17'0 0.0
2017-Mar-17 16:33N 53°44' W 000°17'0 0.0
2017-Mar-17 15:30N 53°44' W 000°17'0 0.0
2017-Mar-17 14:33N 53°44' W 000°17'0 0.0
2017-Mar-17 13:32N 53°44' W 000°17'0 0.0
2017-Mar-17 12:32N 53°44' W 000°17'0 0.0
2017-Mar-17 11:25N 53°44' W 000°17'0 0.0
2017-Mar-17 10:31N 53°44' W 000°17'0 0.0
2017-Mar-17 09:33N 53°44' W 000°17'0 0.0
2017-Mar-17 08:30N 53°44' W 000°17'0 0.0
2017-Mar-17 07:33N 53°44' W 000°17'2 2.1
2017-Mar-17 06:33N 53°43' W 000°14'1717.4
2017-Mar-17 05:33N 53°33' E 000°10'1716.7
2017-Mar-17 04:33N 53°28' E 000°36'11518.3
2017-Mar-16 22:17N 52°19' E 003°09'1418.3
2017-Mar-16 21:30N 52°10' E 003°27'1718.3
2017-Mar-16 20:33N 52°04' E 003°53'1211.2
2017-Mar-16 19:31N 51°57' E 004°08'0 0.0
2017-Mar-16 18:28N 51°57' E 004°08'0 0.0
2017-Mar-16 17:25N 51°57' E 004°08'0 0.0
2017-Mar-16 16:25N 51°57' E 004°08'0 0.0
2017-Mar-16 15:33N 51°57' E 004°08'0 0.0
2017-Mar-16 14:32N 51°57' E 004°08'0 0.0
2017-Mar-16 13:32N 51°57' E 004°08'0 0.0
2017-Mar-16 12:31N 51°57' E 004°08'0 0.4
2017-Mar-16 11:28N 51°57' E 004°08'0 0.0
2017-Mar-16 10:33N 51°57' E 004°08'0 0.4
2017-Mar-16 09:33N 51°57' E 004°08'0 0.0
2017-Mar-16 08:33N 51°57' E 004°08'0 0.0
2017-Mar-16 07:33N 51°57' E 004°08'9 9.3
2017-Mar-16 06:33N 52°01' E 003°54'1919.0
2017-Mar-16 05:33N 52°09' E 003°26'14418.0
2017-Mar-15 21:33N 53°33' E 000°12'1818.0
2017-Mar-15 20:33N 53°42' W 000°14'3 3.2
2017-Mar-15 19:32N 53°44' W 000°17'0 0.0
2017-Mar-15 18:32N 53°44' W 000°17'0 0.0
2017-Mar-15 17:31N 53°44' W 000°17'0 0.0
2017-Mar-15 16:31N 53°44' W 000°17'0 0.0
2017-Mar-15 15:33N 53°44' W 000°17'0 0.0
2017-Mar-15 14:33N 53°44' W 000°17'0 0.0
2017-Mar-15 13:33N 53°44' W 000°17'0 0.0
2017-Mar-15 12:32N 53°44' W 000°17'0 0.0
2017-Mar-15 11:32N 53°44' W 000°17'0 0.0
2017-Mar-15 10:31N 53°44' W 000°17'0 0.0
2017-Mar-15 09:31N 53°44' W 000°17'0 0.0
2017-Mar-15 08:33N 53°44' W 000°17'0 0.0
2017-Mar-15 07:30N 53°44' W 000°17'2 2.2
2017-Mar-15 06:33N 53°43' W 000°14'1817.8
2017-Mar-15 05:31N 53°33' E 000°11'14117.6
2017-Mar-14 21:32N 52°12' E 003°23'1717.6
2017-Mar-14 20:33N 52°04' E 003°47'1414.5
2017-Mar-14 19:33N 51°57' E 004°08'0 0.1
2017-Mar-14 18:26N 51°57' E 004°08'0 0.0
2017-Mar-14 17:31N 51°57' E 004°08'0 0.0
2017-Mar-14 16:32N 51°57' E 004°08'0 0.0
2017-Mar-14 15:28N 51°57' E 004°08'0 0.0
2017-Mar-14 14:33N 51°57' E 004°08'0 0.0
2017-Mar-14 13:30N 51°57' E 004°08'0 0.0
2017-Mar-14 12:29N 51°57' E 004°08'0 0.0
2017-Mar-14 11:32N 51°57' E 004°08'0 0.0
2017-Mar-14 10:32N 51°57' E 004°08'0 0.0
2017-Mar-14 09:31N 51°57' E 004°08'0 0.0
2017-Mar-14 08:31N 51°57' E 004°08'0 0.0
2017-Mar-14 07:33N 51°57' E 004°08'1010.1
2017-Mar-14 06:33N 52°01' E 003°53'1918.5
2017-Mar-14 05:33N 52°09' E 003°25'2117.9
2017-Mar-14 04:23N 52°21' E 002°59'12217.9
2017-Mar-13 21:34N 53°33' E 000°14'1918.5
2017-Mar-13 20:33N 53°42' W 000°14'3 3.2
2017-Mar-13 19:33N 53°44' W 000°17'0 0.0
2017-Mar-13 18:33N 53°44' W 000°17'0 0.0
2017-Mar-13 17:32N 53°44' W 000°17'  
Track history (hours):
 
Tides and Currents Weather Stations Pressure Air Temp Water Temp Dewpoint Dewpoint Depression Visibility Wind Speed Wind Dir Waves Ship Positions

Pride Of Rotterdam

Operator: P&O Ferries

Last reported at 2017-Mar-23 17:31 UTC. Time now 2017-Mar-23 18:22 UTC.
Position N 53°44' W 000°17'.

Length 214 m; draft 6.1 m.

Type: Passenger vessel. MMSI: 244980000.

Date/timePositionNaut miles runAvg speedWind from/ knotsBaromVisibWave heightAir tempDewpointWater temp
2017-Mar-23 17:31N 53°44' W 000°17'0 0.0
2017-Mar-23 16:30N 53°44' W 000°17'0 0.0
2017-Mar-23 15:33N 53°44' W 000°17'0 0.0
2017-Mar-23 14:33N 53°44' W 000°17'0 0.0
2017-Mar-23 13:32N 53°44' W 000°17'0 0.0
2017-Mar-23 12:32N 53°44' W 000°17'0 0.0
2017-Mar-23 11:31N 53°44' W 000°17'0 0.0
2017-Mar-23 10:31N 53°44' W 000°17'0 0.0
2017-Mar-23 09:34N 53°44' W 000°17'0 0.0
2017-Mar-23 08:33N 53°44' W 000°17'0 0.0
2017-Mar-23 07:33N 53°44' W 000°17'2 1.9
2017-Mar-23 06:33N 53°43' W 000°15'1111.3
2017-Mar-23 05:33N 53°35' W 000°01'1615.5
2017-Mar-23 04:32N 53°32' E 000°26'1816.5
2017-Mar-23 03:26N 53°23' E 000°52'1517.2
2017-Mar-23 02:33N 53°13' E 001°11'1818.2
2017-Mar-23 01:33N 53°03' E 001°36'1919.1
2017-Mar-23 00:33N 52°52' E 002°02'8120.3
2017-Mar-22 20:34N 52°04' E 003°49'1413.4
2017-Mar-22 19:33N 51°57' E 004°08'0 0.0
2017-Mar-22 18:32N 51°57' E 004°08'0 0.0
2017-Mar-22 17:31N 51°57' E 004°08'0 0.0
2017-Mar-22 16:31N 51°57' E 004°08'0 0.0
2017-Mar-22 15:28N 51°57' E 004°08'0 0.0
2017-Mar-22 14:33N 51°57' E 004°08'0 0.0
2017-Mar-22 13:33N 51°57' E 004°08'0 0.0
2017-Mar-22 12:32N 51°57' E 004°08'0 0.0
2017-Mar-22 11:32N 51°57' E 004°08'0 0.0
2017-Mar-22 10:31N 51°57' E 004°08'0 0.0
2017-Mar-22 09:31N 51°57' E 004°08'0 0.0
2017-Mar-22 08:30N 51°57' E 004°08'0 0.0
2017-Mar-22 07:33N 51°57' E 004°08'10 9.9
2017-Mar-22 06:34N 52°02' E 003°54'7618.5
2017-Mar-22 02:27N 52°41' E 002°07'1719.3
2017-Mar-22 01:34N 52°51' E 001°44'1919.3
2017-Mar-22 00:34N 52°59' E 001°15'5418.0
2017-Mar-21 21:33N 53°34' E 000°06'1413.6
2017-Mar-21 20:33N 53°41' W 000°14'4 3.5
2017-Mar-21 19:31N 53°44' W 000°17'0 0.0
2017-Mar-21 18:34N 53°44' W 000°17'0 0.0
2017-Mar-21 17:33N 53°44' W 000°17'0 0.0
2017-Mar-21 16:33N 53°44' W 000°17'0 0.0
2017-Mar-21 15:32N 53°44' W 000°17'0 0.0
2017-Mar-21 14:32N 53°44' W 000°17'0 0.0
2017-Mar-21 13:31N 53°44' W 000°17'0 0.0
2017-Mar-21 12:31N 53°44' W 000°17'0 0.0
2017-Mar-21 11:33N 53°44' W 000°17'0 0.0
2017-Mar-21 10:33N 53°44' W 000°17'0 0.0
2017-Mar-21 09:33N 53°44' W 000°17'0 0.0
2017-Mar-21 08:32N 53°44' W 000°17'0 0.0
2017-Mar-21 07:32N 53°44' W 000°17'2 2.5
2017-Mar-21 06:33N 53°42' W 000°14'1312.9
2017-Mar-21 05:33N 53°35' E 000°03'1615.9
2017-Mar-21 04:33N 53°31' E 000°29'2018.1
2017-Mar-21 03:26N 53°21' E 000°59'1618.5
2017-Mar-21 02:34N 53°12' E 001°21'1918.5
2017-Mar-21 01:33N 53°00' E 001°45'1918.7
2017-Mar-21 00:33N 52°48' E 002°09'6319.9
2017-Mar-20 21:24N 52°09' E 003°29'1619.6
2017-Mar-20 20:33N 52°02' E 003°54'1010.3
2017-Mar-20 19:33N 51°57' E 004°08'0 0.0
2017-Mar-20 18:33N 51°57' E 004°08'0 0.0
2017-Mar-20 17:32N 51°57' E 004°08'0 0.0
2017-Mar-20 16:32N 51°57' E 004°08'0 0.0
2017-Mar-20 15:32N 51°57' E 004°08'0 0.0
2017-Mar-20 14:32N 51°57' E 004°08'0 0.0
2017-Mar-20 13:31N 51°57' E 004°08'0 0.0
2017-Mar-20 12:33N 51°57' E 004°08'0 0.0
2017-Mar-20 11:33N 51°57' E 004°08'0 0.0
2017-Mar-20 10:29N 51°57' E 004°08'0 0.0
2017-Mar-20 09:32N 51°57' E 004°08'0 0.0
2017-Mar-20 08:32N 51°57' E 004°08'0 0.0
2017-Mar-20 07:33N 51°57' E 004°08'1010.0
2017-Mar-20 06:34N 52°01' E 003°53'13917.4
2017-Mar-19 22:33N 53°17' E 000°41'1717.0
2017-Mar-19 21:33N 53°29' E 000°21'1717.0
2017-Mar-19 20:33N 53°37' W 000°05'1110.3
2017-Mar-19 19:31N 53°44' W 000°17'0 0.0
2017-Mar-19 18:31N 53°44' W 000°17'0 0.0
2017-Mar-19 17:33N 53°44' W 000°17'0 0.0
2017-Mar-19 16:33N 53°44' W 000°17'0 0.0
2017-Mar-19 15:33N 53°44' W 000°17'0 0.0
2017-Mar-19 14:32N 53°44' W 000°17'0 0.0
2017-Mar-19 13:32N 53°44' W 000°17'0 0.0
2017-Mar-19 12:31N 53°44' W 000°17'0 0.0
2017-Mar-19 11:31N 53°44' W 000°17'0 0.0
2017-Mar-19 10:33N 53°44' W 000°17'0 0.0
2017-Mar-19 09:33N 53°44' W 000°17'0 0.0
2017-Mar-19 08:33N 53°44' W 000°17'1 0.9
2017-Mar-19 07:31N 53°44' W 000°16'1313.6
2017-Mar-19 06:33N 53°35' E 000°01'1515.0
2017-Mar-19 05:33N 53°32' E 000°26'1515.4
2017-Mar-19 04:33N 53°24' E 000°47'1616.2
2017-Mar-19 03:33N 53°16' E 001°11'1615.8
2017-Mar-19 02:33N 53°07' E 001°32'1515.2
2017-Mar-19 01:33N 52°57' E 001°52'8315.3
2017-Mar-18 20:08N 52°07' E 003°40'813.6
2017-Mar-18 19:33N 52°05' E 003°52'1211.9
2017-Mar-18 18:31N 51°57' E 004°08'0 0.0
2017-Mar-18 17:33N 51°57' E 004°08'0 0.0
2017-Mar-18 16:33N 51°57' E 004°08'0 0.0
2017-Mar-18 15:30N 51°57' E 004°08'0 0.0
2017-Mar-18 14:33N 51°57' E 004°08'0 0.0
2017-Mar-18 13:32N 51°57' E 004°08'0 0.0
2017-Mar-18 12:32N 51°57' E 004°08'0 0.0
2017-Mar-18 11:31N 51°57' E 004°08'0 0.0
2017-Mar-18 10:33N 51°57' E 004°08'0 0.0
2017-Mar-18 09:32N 51°57' E 004°08'0 0.0
2017-Mar-18 08:32N 51°57' E 004°08'2 1.8
2017-Mar-18 07:33N 51°58' E 004°07'1616.3
2017-Mar-18 06:33N 52°04' E 003°42'12417.6
2017-Mar-17 23:31N 53°11' E 000°51'1818.2
2017-Mar-17 22:33N 53°23' E 000°30'1817.8
2017-Mar-17 21:33N 53°34' E 000°06'1616.0
2017-Mar-17 20:33N 53°43' W 000°15'1 1.3
2017-Mar-17 19:32N 53°44' W 000°17'0 0.0
2017-Mar-17 18:31N 53°44' W 000°17'0 0.0
2017-Mar-17 17:31N 53°44' W 000°17'0 0.0
2017-Mar-17 16:33N 53°44' W 000°17'0 0.0
2017-Mar-17 15:30N 53°44' W 000°17'0 0.0
2017-Mar-17 14:33N 53°44' W 000°17'0 0.0
2017-Mar-17 13:32N 53°44' W 000°17'0 0.0
2017-Mar-17 12:32N 53°44' W 000°17'0 0.0
2017-Mar-17 11:25N 53°44' W 000°17'0 0.0
2017-Mar-17 10:31N 53°44' W 000°17'0 0.0
2017-Mar-17 09:33N 53°44' W 000°17'0 0.0
2017-Mar-17 08:30N 53°44' W 000°17'0 0.0
2017-Mar-17 07:33N 53°44' W 000°17'2 2.1
2017-Mar-17 06:33N 53°43' W 000°14'1717.4
2017-Mar-17 05:33N 53°33' E 000°10'1716.7
2017-Mar-17 04:33N 53°28' E 000°36'11518.3
2017-Mar-16 22:17N 52°19' E 003°09'1418.3
2017-Mar-16 21:30N 52°10' E 003°27'1718.3
2017-Mar-16 20:33N 52°04' E 003°53'1211.2
2017-Mar-16 19:31N 51°57' E 004°08'0 0.0
2017-Mar-16 18:28N 51°57' E 004°08'0 0.0
2017-Mar-16 17:25N 51°57' E 004°08'0 0.0
2017-Mar-16 16:25N 51°57' E 004°08'0 0.0
2017-Mar-16 15:33N 51°57' E 004°08'0 0.0
2017-Mar-16 14:32N 51°57' E 004°08'0 0.0
2017-Mar-16 13:32N 51°57' E 004°08'0 0.0
2017-Mar-16 12:31N 51°57' E 004°08'0 0.4
2017-Mar-16 11:28N 51°57' E 004°08'0 0.0
2017-Mar-16 10:33N 51°57' E 004°08'0 0.4
2017-Mar-16 09:33N 51°57' E 004°08'0 0.0
2017-Mar-16 08:33N 51°57' E 004°08'0 0.0
2017-Mar-16 07:33N 51°57' E 004°08'9 9.3
2017-Mar-16 06:33N 52°01' E 003°54'1919.0
2017-Mar-16 05:33N 52°09' E 003°26'14418.0
2017-Mar-15 21:33N 53°33' E 000°12'1818.0
2017-Mar-15 20:33N 53°42' W 000°14'3 3.2
2017-Mar-15 19:32N 53°44' W 000°17'0 0.0
2017-Mar-15 18:32N 53°44' W 000°17'0 0.0
2017-Mar-15 17:31N 53°44' W 000°17'0 0.0
2017-Mar-15 16:31N 53°44' W 000°17'0 0.0
2017-Mar-15 15:33N 53°44' W 000°17'0 0.0
2017-Mar-15 14:33N 53°44' W 000°17'0 0.0
2017-Mar-15 13:33N 53°44' W 000°17'0 0.0
2017-Mar-15 12:32N 53°44' W 000°17'0 0.0
2017-Mar-15 11:32N 53°44' W 000°17'0 0.0
2017-Mar-15 10:31N 53°44' W 000°17'0 0.0
2017-Mar-15 09:31N 53°44' W 000°17'0 0.0
2017-Mar-15 08:33N 53°44' W 000°17'0 0.0
2017-Mar-15 07:30N 53°44' W 000°17'2 2.2
2017-Mar-15 06:33N 53°43' W 000°14'1817.8
2017-Mar-15 05:31N 53°33' E 000°11'14117.6
2017-Mar-14 21:32N 52°12' E 003°23'1717.6
2017-Mar-14 20:33N 52°04' E 003°47'1414.5
2017-Mar-14 19:33N 51°57' E 004°08'0 0.1
2017-Mar-14 18:26N 51°57' E 004°08'0 0.0
2017-Mar-14 17:31N 51°57' E 004°08'0 0.0
2017-Mar-14 16:32N 51°57' E 004°08'0 0.0
2017-Mar-14 15:28N 51°57' E 004°08'0 0.0
2017-Mar-14 14:33N 51°57' E 004°08'0 0.0
2017-Mar-14 13:30N 51°57' E 004°08'0 0.0
2017-Mar-14 12:29N 51°57' E 004°08'0 0.0
2017-Mar-14 11:32N 51°57' E 004°08'0 0.0
2017-Mar-14 10:32N 51°57' E 004°08'0 0.0
2017-Mar-14 09:31N 51°57' E 004°08'0 0.0
2017-Mar-14 08:31N 51°57' E 004°08'0 0.0
2017-Mar-14 07:33N 51°57' E 004°08'1010.1
2017-Mar-14 06:33N 52°01' E 003°53'1918.5
2017-Mar-14 05:33N 52°09' E 003°25'2117.9
2017-Mar-14 04:23N 52°21' E 002°59'12217.9
2017-Mar-13 21:34N 53°33' E 000°14'1918.5
2017-Mar-13 20:33N 53°42' W 000°14'3 3.2
2017-Mar-13 19:33N 53°44' W 000°17'0 0.0
2017-Mar-13 18:33N 53°44' W 000°17'0 0.0
2017-Mar-13 17:32N 53°44' W 000°17'  

Dump ship's entire track history